Anchor, Texas
Current Conditions -  °F | °C
As of 3:53 AM on Saturday 29 Nov 2014 (Local Time) from KLBX Reporting Station
Clear Clear  
Wind Chill: 17°   Ceiling: Unl
Heat Index: 17°   Visibility: 10mi
Dew Point: 16°   Wind: 12mph
Humidity: 96%   Direction: 190°S
Pressure: 30.1"   Gusts: NA
Location:  29.1898°N, 95.4754°W
Report Text: KLBX 290953Z AUTO 19010KT 10SM CLR 17/16 A3010 RMK AO2 SLP191 T01670161
Loading
Personal Weather Stations






























Interactive Weather Map New forecast layout! Learn more

10-Day Weather Forecast

Advertisements
Track Severe Weather on mobile